createdAt,value
2023-05-04T03:57:46.229Z,14.91
2023-05-04T04:00:48.823Z,14.91
2023-05-04T04:03:51.475Z,14.49
2023-05-04T04:06:54.082Z,14.55
2023-05-04T04:09:56.618Z,14.60
2023-05-04T04:12:58.816Z,14.66
2023-05-04T04:16:01.357Z,14.59
2023-05-04T04:19:03.519Z,14.77
2023-05-04T04:22:05.965Z,14.93
2023-05-04T04:25:08.897Z,14.78
2023-05-04T04:28:11.487Z,14.86
2023-05-04T04:31:13.656Z,14.86
2023-05-04T04:34:16.250Z,14.85
2023-05-04T04:37:18.432Z,14.86
2023-05-04T04:40:22.465Z,14.92
2023-05-04T04:43:24.669Z,15.04
2023-05-04T04:46:27.957Z,15.14
2023-05-04T04:49:30.118Z,15.09
2023-05-04T04:52:33.470Z,15.13
2023-05-04T04:55:35.593Z,15.20
2023-05-04T04:58:38.034Z,15.31
2023-05-04T05:01:42.668Z,15.31
2023-05-04T05:04:45.111Z,15.26
2023-05-04T05:07:47.628Z,15.31
2023-05-04T05:10:50.052Z,15.40
2023-05-04T05:13:52.187Z,15.46
2023-05-04T05:16:54.698Z,15.50
2023-05-04T05:19:56.971Z,15.50
2023-05-04T05:22:59.607Z,15.77
2023-05-04T05:26:03.350Z,15.68
2023-05-04T05:29:05.940Z,15.93
2023-05-04T05:32:08.046Z,15.98
2023-05-04T05:35:10.559Z,16.06
2023-05-04T05:38:12.757Z,16.00
2023-05-04T05:41:15.360Z,16.03
2023-05-04T05:44:17.501Z,15.81
2023-05-04T05:47:20.041Z,15.84
2023-05-04T05:50:23.443Z,15.77
2023-05-04T05:53:26.231Z,15.72
2023-05-04T05:56:28.356Z,15.81
2023-05-04T05:59:30.725Z,15.95
2023-05-04T06:02:32.888Z,16.12
2023-05-04T06:05:35.335Z,16.14
2023-05-04T06:08:37.629Z,16.19
2023-05-04T06:11:40.063Z,16.24
2023-05-04T06:14:42.227Z,16.17
2023-05-04T06:17:44.743Z,16.23
2023-05-04T06:20:46.883Z,16.19
2023-05-04T06:23:49.228Z,16.27
2023-05-04T06:26:51.469Z,16.33
2023-05-04T06:29:53.883Z,16.37
2023-05-04T06:32:56.016Z,16.43
2023-05-04T06:35:58.457Z,16.66
2023-05-04T06:39:00.535Z,16.77
2023-05-04T06:42:03.438Z,17.02
2023-05-04T06:45:10.423Z,17.31
2023-05-04T06:48:13.805Z,17.37
2023-05-04T06:51:16.250Z,17.41
2023-05-04T06:54:18.674Z,17.44
2023-05-04T06:57:20.807Z,17.58
2023-05-04T07:00:23.770Z,17.64
2023-05-04T07:03:26.888Z,17.64
2023-05-04T07:06:29.762Z,17.36
2023-05-04T07:09:32.112Z,17.12
2023-05-04T07:12:34.633Z,17.02
2023-05-04T07:15:37.054Z,17.12
2023-05-04T07:18:40.328Z,17.10
2023-05-04T07:21:42.712Z,17.04
2023-05-04T07:24:45.088Z,17.05
2023-05-04T07:27:49.404Z,16.96
2023-05-04T07:30:54.505Z,17.03
2023-05-04T07:33:57.147Z,17.12
2023-05-04T07:36:59.525Z,17.18
2023-05-04T07:40:02.936Z,17.30
2023-05-04T07:43:05.731Z,17.15
2023-05-04T07:46:09.397Z,17.21
2023-05-04T07:49:13.512Z,17.54
2023-05-04T07:52:16.443Z,17.66
2023-05-04T07:55:19.063Z,17.78
2023-05-04T07:58:21.308Z,17.71
2023-05-04T08:01:24.637Z,17.42
2023-05-04T08:04:27.483Z,17.48
2023-05-04T08:07:29.575Z,17.44
2023-05-04T08:10:36.633Z,17.48
2023-05-04T08:13:39.838Z,17.73
2023-05-04T08:16:42.316Z,17.86
2023-05-04T08:19:44.543Z,17.72
2023-05-04T08:22:48.914Z,17.70
2023-05-04T08:25:52.365Z,17.69
2023-05-04T08:29:06.011Z,17.80
2023-05-04T08:32:09.337Z,17.97
2023-05-04T08:35:11.869Z,18.07
2023-05-04T08:38:14.043Z,18.19
2023-05-04T08:41:16.661Z,18.28
2023-05-04T08:44:19.581Z,18.44
2023-05-04T08:47:22.232Z,18.25
2023-05-04T08:50:24.824Z,18.28
2023-05-04T08:53:28.067Z,18.25
2023-05-04T08:56:30.622Z,18.31
2023-05-04T08:59:33.443Z,18.36
2023-05-04T09:02:37.335Z,18.59
2023-05-04T09:05:42.601Z,18.61
2023-05-04T09:08:44.788Z,18.65
2023-05-04T09:11:47.890Z,18.59
2023-05-04T09:14:50.436Z,18.55
2023-05-04T09:18:05.430Z,18.59
2023-05-04T09:21:07.889Z,18.67
2023-05-04T09:24:12.472Z,18.72
2023-05-04T09:27:16.251Z,18.75
2023-05-04T09:30:21.136Z,18.85
2023-05-04T09:33:27.386Z,18.93
2023-05-04T09:36:29.817Z,19.06
2023-05-04T09:39:31.946Z,19.02
2023-05-04T09:42:34.363Z,19.06
2023-05-04T09:45:44.606Z,19.14
2023-05-04T09:48:52.295Z,19.13
2023-05-04T09:51:55.048Z,19.23
2023-05-04T09:54:58.802Z,19.24
2023-05-04T09:58:01.211Z,19.29
2023-05-04T10:01:04.863Z,19.42
2023-05-04T10:04:07.352Z,19.49
2023-05-04T10:07:09.606Z,19.59
2023-05-04T10:10:14.518Z,19.61
2023-05-04T10:13:17.445Z,19.63
2023-05-04T10:16:41.766Z,19.52
2023-05-04T10:19:59.184Z,19.43
2023-05-04T10:23:23.677Z,19.33
2023-05-04T10:26:40.666Z,19.27
2023-05-04T10:29:49.343Z,19.26
2023-05-04T10:32:59.336Z,19.34
2023-05-04T10:36:01.969Z,19.36
2023-05-04T10:39:05.892Z,19.37
2023-05-04T10:42:08.513Z,19.48
2023-05-04T10:45:10.957Z,19.43
2023-05-04T10:48:13.793Z,19.27
2023-05-04T10:51:26.592Z,19.31
2023-05-04T10:54:32.790Z,19.39
2023-05-04T10:57:35.398Z,19.55
2023-05-04T11:00:40.157Z,19.70
2023-05-04T11:03:42.692Z,19.77
2023-05-04T11:06:56.235Z,19.79
2023-05-04T11:09:59.642Z,19.90
2023-05-04T11:13:05.531Z,19.90
2023-05-04T11:16:08.231Z,19.86
2023-05-04T11:19:12.555Z,19.73
2023-05-04T11:22:15.499Z,19.66
2023-05-04T11:25:27.079Z,19.53
2023-05-04T11:28:36.622Z,19.45
2023-05-04T11:31:39.780Z,19.45
2023-05-04T11:34:46.183Z,19.55
2023-05-04T11:37:50.360Z,19.70
2023-05-04T11:40:52.476Z,19.76
2023-05-04T11:43:55.201Z,19.79
2023-05-04T11:46:57.391Z,20.00
2023-05-04T11:50:00.118Z,19.91
2023-05-04T11:53:12.172Z,19.91
2023-05-04T11:56:14.628Z,19.90
2023-05-04T11:59:16.924Z,20.00
2023-05-04T12:02:20.377Z,20.07
2023-05-04T12:05:22.952Z,20.03
2023-05-04T12:08:35.911Z,19.98
2023-05-04T12:11:40.605Z,19.94
2023-05-04T12:14:54.080Z,19.97
2023-05-04T12:17:59.642Z,19.93
2023-05-04T12:21:21.436Z,19.96
2023-05-04T12:24:25.011Z,20.04
2023-05-04T12:27:27.696Z,20.12
2023-05-04T12:30:30.575Z,20.26
2023-05-04T12:33:33.564Z,20.30
2023-05-04T12:36:36.047Z,20.23
2023-05-04T12:39:38.453Z,20.18
2023-05-04T12:42:42.264Z,20.13
2023-05-04T12:45:44.508Z,20.05
2023-05-04T12:48:47.008Z,20.11
2023-05-04T12:51:50.320Z,19.97
2023-05-04T12:54:52.692Z,19.89
2023-05-04T12:57:54.787Z,19.84
2023-05-04T13:00:58.040Z,19.77
2023-05-04T13:04:00.309Z,19.75
2023-05-04T13:07:02.844Z,19.71
2023-05-04T13:10:06.484Z,19.79
2023-05-04T13:13:09.134Z,19.45
2023-05-04T13:16:12.741Z,19.37
2023-05-04T13:19:15.292Z,19.40
2023-05-04T13:22:17.438Z,19.51
2023-05-04T13:25:19.828Z,19.58
2023-05-04T13:28:22.028Z,19.56
2023-05-04T13:31:24.558Z,19.62
2023-05-04T13:34:26.784Z,19.69
2023-05-04T13:37:29.150Z,19.73
2023-05-04T13:40:31.523Z,19.78
2023-05-04T13:43:33.898Z,19.89
2023-05-04T13:46:36.837Z,20.01
2023-05-04T13:49:39.772Z,20.09
2023-05-04T13:52:41.965Z,20.24
2023-05-04T13:55:44.368Z,20.34
2023-05-04T13:58:46.509Z,20.30
2023-05-04T14:01:49.044Z,20.23
2023-05-04T14:04:52.851Z,20.28
2023-05-04T14:07:55.058Z,20.27
2023-05-04T14:10:57.523Z,20.28
2023-05-04T14:13:59.671Z,20.22
2023-05-04T14:17:02.188Z,20.15
2023-05-04T14:20:05.807Z,20.11
2023-05-04T14:23:08.275Z,20.10
2023-05-04T14:26:11.466Z,20.10
2023-05-04T14:29:13.990Z,20.18
2023-05-04T14:32:16.297Z,20.18
2023-05-04T14:35:18.699Z,20.25
2023-05-04T14:38:21.038Z,20.34
2023-05-04T14:41:23.506Z,20.35
2023-05-04T14:44:27.826Z,20.36
2023-05-04T14:47:30.336Z,20.35
2023-05-04T14:50:32.786Z,20.34
2023-05-04T14:53:36.979Z,20.35
2023-05-04T14:56:40.788Z,20.26
2023-05-04T14:59:43.651Z,20.28
2023-05-04T15:02:45.818Z,20.20
2023-05-04T15:05:48.301Z,20.16
2023-05-04T15:08:50.661Z,20.27
